Terminal Aerodrome Forecast
Issued by NWS

Home | Current Version | Previous Version | Text Only | Print | Product List | Glossary On
Versions: 1 2 3 4 5 6 7 8 9 10 11 12 13 14 15 16 17 18 19 20 21 22 23 24
330
FTUS44 KMAF 221129
TAFHOB
TAF
KHOB 221129Z 2212/2312 08006KT 4SM BR OVC004
      TEMPO 2212/2216 -FZDZ
     FM221700 17007KT P6SM BKN015
     FM222000 19009KT P6SM SCT250=

USA.gov is the U.S. government's official web portal to all federal, state and local government web resources and services.